Time;durP1;ratioP1;P1;durP2;ratioP2;P2;SDS_P1;SDS_P2;PMS_P1;PMS_P2;Temp;Humidity;BMP_temperature;BMP_pressure;BME280_temperature;BME280_humidity;BME280_pressure;Samples;Min_cycle;Max_cycle;Signal;HPM_P1;HPM_P2
2023/01/15 00:01:27;;;;;;;2.38;1.55;;;9.20;99.90;;;;;;5012394;28;20763;-62
2023/01/15 00:03:56;;;;;;;1.73;1.00;;;9.00;99.90;;;;;;5012471;28;20421;-61
2023/01/15 00:06:27;;;;;;;1.65;1.00;;;8.80;99.90;;;;;;5012211;28;20931;-61
2023/01/15 00:08:54;;;;;;;2.13;0.90;;;8.60;99.90;;;;;;5012189;28;20468;-61
2023/01/15 00:11:22;;;;;;;1.90;1.10;;;8.40;99.90;;;;;;5012891;28;20888;-59
2023/01/15 00:13:49;;;;;;;1.90;1.20;;;8.20;99.90;;;;;;5013033;28;20442;-59
2023/01/15 00:16:20;;;;;;;1.92;0.90;;;8.00;99.90;;;;;;5012404;28;20516;-60
2023/01/15 00:18:50;;;;;;;1.20;0.90;;;7.90;99.90;;;;;;5012780;28;20417;-58
2023/01/15 00:21:18;;;;;;;2.60;1.00;;;7.80;99.90;;;;;;5012975;28;20475;-59
2023/01/15 00:29:16;;;;;;;1.58;0.60;;;7.40;99.90;;;;;;5016405;28;20486;-61
2023/01/15 00:31:45;;;;;;;3.20;0.60;;;7.20;99.90;;;;;;5016569;28;20424;-60
2023/01/15 00:34:12;;;;;;;3.40;0.70;;;7.10;99.90;;;;;;5016717;28;20430;-60
2023/01/15 00:36:40;;;;;;;1.90;0.70;;;7.00;99.90;;;;;;5016189;28;20476;-61
2023/01/15 00:39:07;;;;;;;1.80;0.80;;;6.90;99.90;;;;;;5016788;28;20416;-61
2023/01/15 00:41:33;;;;;;;2.03;0.70;;;6.80;99.90;;;;;;5016274;28;20447;-60
2023/01/15 00:44:00;;;;;;;2.05;0.80;;;6.70;99.90;;;;;;5015986;28;20424;-59
2023/01/15 00:46:27;;;;;;;3.05;0.60;;;6.70;99.90;;;;;;5015689;28;20408;-59
2023/01/15 00:48:54;;;;;;;2.42;0.80;;;6.60;99.90;;;;;;5015605;28;20500;-61
2023/01/15 00:51:21;;;;;;;3.10;0.70;;;6.50;99.90;;;;;;5016142;28;20422;-59
2023/01/15 00:53:49;;;;;;;1.85;0.80;;;6.50;99.90;;;;;;5016173;28;20479;-59
2023/01/15 00:56:16;;;;;;;1.00;0.63;;;6.40;99.90;;;;;;5015670;28;20424;-61
2023/01/15 00:58:43;;;;;;;2.67;0.70;;;6.30;99.90;;;;;;5015291;28;20416;-61
2023/01/15 01:01:10;;;;;;;1.90;0.80;;;6.30;99.90;;;;;;5015258;28;20435;-60
2023/01/15 01:03:36;;;;;;;2.30;0.60;;;6.20;99.90;;;;;;5016086;28;20415;-60
2023/01/15 01:06:04;;;;;;;1.90;0.90;;;6.10;99.90;;;;;;5015893;28;20773;-60
2023/01/15 01:08:31;;;;;;;1.63;0.70;;;6.10;99.90;;;;;;5015606;28;20797;-60
2023/01/15 01:11:07;;;;;;;1.65;0.60;;;6.00;99.90;;;;;;5015256;28;20791;-59
2023/01/15 01:13:34;;;;;;;1.52;0.80;;;6.00;99.90;;;;;;5015801;28;20781;-61
2023/01/15 01:16:01;;;;;;;3.50;1.00;;;5.90;99.90;;;;;;5015372;28;20528;-60
2023/01/15 01:18:29;;;;;;;1.60;0.80;;;5.90;99.90;;;;;;5015365;28;20511;-60
2023/01/15 01:20:56;;;;;;;1.27;0.80;;;5.80;99.90;;;;;;5015411;28;20452;-60
2023/01/15 01:23:24;;;;;;;1.45;0.70;;;5.80;99.90;;;;;;5015160;28;20785;-60
2023/01/15 01:25:51;;;;;;;0.97;0.60;;;5.70;99.90;;;;;;5015418;28;20458;-59
2023/01/15 01:28:19;;;;;;;2.00;0.80;;;5.70;99.90;;;;;;5015239;28;20429;-59
2023/01/15 01:30:46;;;;;;;1.20;0.60;;;5.70;99.90;;;;;;5015295;28;20516;-59
2023/01/15 01:33:13;;;;;;;1.10;0.60;;;5.70;99.90;;;;;;5015620;28;20429;-60
2023/01/15 01:35:40;;;;;;;1.30;0.57;;;5.70;99.90;;;;;;5014859;28;20440;-60
2023/01/15 01:38:06;;;;;;;1.52;0.60;;;5.70;99.90;;;;;;5014333;28;20499;-62
2023/01/15 01:40:33;;;;;;;3.38;0.60;;;5.60;99.90;;;;;;5014964;28;20416;-61
2023/01/15 01:43:00;;;;;;;1.20;0.60;;;5.60;99.90;;;;;;5014955;28;20448;-60
2023/01/15 01:45:32;;;;;;;2.00;0.60;;;5.60;99.90;;;;;;5014648;28;20413;-60
2023/01/15 01:48:05;;;;;;;1.38;0.70;;;5.50;99.90;;;;;;5014807;28;20905;-61
2023/01/15 01:50:33;;;;;;;2.10;0.70;;;5.50;99.90;;;;;;5014466;28;20915;-60
2023/01/15 01:53:06;;;;;;;3.40;0.80;;;5.50;99.90;;;;;;5015268;28;20440;-59
2023/01/15 01:55:35;;;;;;;1.55;0.65;;;5.50;99.90;;;;;;5014581;28;20433;-59
2023/01/15 01:58:05;;;;;;;2.40;0.80;;;5.40;99.90;;;;;;5014569;28;20792;-59
2023/01/15 02:00:35;;;;;;;1.55;0.90;;;5.30;99.90;;;;;;5014473;28;20424;-60
2023/01/15 02:03:05;;;;;;;1.70;0.52;;;5.30;99.90;;;;;;5014452;28;20424;-58
2023/01/15 02:05:35;;;;;;;1.80;0.60;;;5.30;99.90;;;;;;5014302;28;20408;-59
2023/01/15 02:08:02;;;;;;;1.65;0.52;;;5.30;99.90;;;;;;5015398;28;20754;-59
2023/01/15 02:10:29;;;;;;;2.80;1.00;;;5.20;99.90;;;;;;5014297;28;20420;-59
2023/01/15 02:13:01;;;;;;;1.10;0.50;;;5.20;99.90;;;;;;5014047;28;20420;-59
2023/01/15 02:15:32;;;;;;;2.25;0.80;;;5.20;99.90;;;;;;5013815;28;20797;-58
2023/01/15 02:18:09;;;;;;;1.83;0.50;;;5.10;99.90;;;;;;5014010;28;20424;-59
2023/01/15 02:20:40;;;;;;;1.45;0.60;;;5.10;99.90;;;;;;5013969;28;20431;-59
2023/01/15 02:23:23;;;;;;;1.15;0.52;;;5.10;99.90;;;;;;5014455;28;20508;-60
2023/01/15 02:26:03;;;;;;;3.05;0.80;;;5.10;99.90;;;;;;5013885;28;20417;-59
2023/01/15 02:28:34;;;;;;;2.00;0.60;;;5.10;99.90;;;;;;5013656;28;21044;-59
2023/01/15 02:31:05;;;;;;;2.17;0.60;;;5.10;99.90;;;;;;5014285;28;20532;-59
2023/01/15 02:33:36;;;;;;;2.00;0.60;;;5.10;99.90;;;;;;5013911;28;20964;-60
2023/01/15 02:36:06;;;;;;;1.50;0.60;;;5.20;99.90;;;;;;5014151;28;20429;-59
2023/01/15 02:38:35;;;;;;;1.30;0.60;;;5.20;99.90;;;;;;5013554;28;20428;-59
2023/01/15 02:41:06;;;;;;;1.45;0.70;;;5.20;99.90;;;;;;5013999;28;20416;-59
2023/01/15 02:43:37;;;;;;;1.60;0.63;;;5.20;99.90;;;;;;5014344;28;20758;-59
2023/01/15 02:46:06;;;;;;;1.48;0.50;;;5.20;99.90;;;;;;5013986;28;20785;-58
2023/01/15 02:48:36;;;;;;;0.80;0.60;;;5.20;99.90;;;;;;5013715;28;20440;-59
2023/01/15 02:51:08;;;;;;;1.00;0.70;;;5.20;99.90;;;;;;5012223;28;20901;-59
2023/01/15 02:53:38;;;;;;;2.20;0.60;;;5.20;99.90;;;;;;5013719;28;20420;-60
2023/01/15 02:56:09;;;;;;;1.20;0.60;;;5.20;99.90;;;;;;5013644;28;20429;-58
2023/01/15 02:58:40;;;;;;;0.90;0.50;;;5.20;99.90;;;;;;5013158;28;20425;-60
2023/01/15 03:01:11;;;;;;;0.68;0.40;;;5.20;99.90;;;;;;5013702;28;20507;-59
2023/01/15 03:03:42;;;;;;;1.13;0.50;;;5.20;99.90;;;;;;5013399;28;20416;-60
2023/01/15 03:06:14;;;;;;;1.67;0.55;;;5.20;99.90;;;;;;5013652;28;20417;-59
2023/01/15 03:08:41;;;;;;;0.97;0.50;;;5.20;99.90;;;;;;5013187;28;20927;-59
2023/01/15 03:11:10;;;;;;;1.50;0.50;;;5.20;99.90;;;;;;5012956;28;20780;-59
2023/01/15 03:13:47;;;;;;;1.60;0.50;;;5.20;99.90;;;;;;5013265;28;20420;-59
2023/01/15 03:16:37;;;;;;;1.70;0.60;;;5.30;99.90;;;;;;5012888;28;20905;-59
2023/01/15 03:19:14;;;;;;;1.85;0.70;;;5.30;99.90;;;;;;5013358;28;20417;-59
2023/01/15 03:21:51;;;;;;;2.65;0.63;;;5.30;99.90;;;;;;5014221;28;20420;-59
2023/01/15 03:24:27;;;;;;;1.20;0.60;;;5.30;99.90;;;;;;5013521;28;20822;-60
2023/01/15 03:26:54;;;;;;;0.90;0.50;;;5.30;99.90;;;;;;5013355;28;20500;-59
2023/01/15 03:29:24;;;;;;;1.80;0.68;;;5.30;99.90;;;;;;5013163;28;20421;-58
2023/01/15 03:31:52;;;;;;;2.80;0.80;;;5.40;99.90;;;;;;5013091;28;20424;-59
2023/01/15 03:34:20;;;;;;;3.70;0.70;;;5.40;99.90;;;;;;5012667;28;20435;-59
2023/01/15 03:36:47;;;;;;;5.30;0.85;;;5.40;99.90;;;;;;5012566;28;20996;-58
2023/01/15 03:39:14;;;;;;;2.78;0.70;;;5.50;99.90;;;;;;5012466;28;20403;-59
2023/01/15 03:41:52;;;;;;;3.47;1.10;;;5.40;99.90;;;;;;5012825;28;20420;-59
2023/01/15 03:44:31;;;;;;;2.95;0.77;;;5.50;99.90;;;;;;5012903;28;20424;-58
2023/01/15 03:47:05;;;;;;;1.13;0.80;;;5.50;99.90;;;;;;5013043;28;20425;-60
2023/01/15 03:49:43;;;;;;;2.80;0.90;;;5.50;99.90;;;;;;5012887;28;20420;-60
2023/01/15 03:52:17;;;;;;;3.90;0.90;;;5.50;99.90;;;;;;5012640;28;20416;-60
2023/01/15 03:54:50;;;;;;;3.20;0.80;;;5.50;99.90;;;;;;5012448;28;20963;-59
2023/01/15 03:57:23;;;;;;;2.17;1.10;;;5.60;99.90;;;;;;5012233;28;20801;-60
2023/01/15 03:59:55;;;;;;;3.50;0.70;;;5.60;99.90;;;;;;5012521;28;20425;-60
2023/01/15 04:02:24;;;;;;;1.75;1.00;;;5.60;99.90;;;;;;5012138;28;20423;-58
2023/01/15 04:04:53;;;;;;;2.60;0.90;;;5.60;99.90;;;;;;5012248;28;20417;-60
2023/01/15 04:07:20;;;;;;;2.60;0.80;;;5.60;99.90;;;;;;5026942;28;20413;-59
2023/01/15 04:11:02;;;;;;;2.20;0.70;;;5.70;99.90;;;;;;5136148;27;20351;-61
2023/01/15 04:13:29;;;;;;;3.35;1.27;;;5.70;99.90;;;;;;5130164;27;20419;-61
2023/01/15 04:15:56;;;;;;;2.35;1.02;;;5.70;99.90;;;;;;5130110;27;20494;-60
2023/01/15 04:18:23;;;;;;;2.72;1.10;;;5.70;99.90;;;;;;5130463;27;20422;-60
2023/01/15 04:20:50;;;;;;;2.08;1.10;;;5.70;99.90;;;;;;5130103;27;20404;-61
2023/01/15 04:23:26;;;;;;;2.20;1.00;;;5.80;99.90;;;;;;5130894;27;20411;-61
2023/01/15 04:25:53;;;;;;;2.30;1.00;;;5.80;99.90;;;;;;5130361;27;20495;-61
2023/01/15 04:28:21;;;;;;;1.48;0.90;;;5.80;99.90;;;;;;5130255;27;20416;-61
2023/01/15 04:30:48;;;;;;;3.60;1.30;;;5.80;99.90;;;;;;5129818;27;20430;-60
2023/01/15 04:33:15;;;;;;;2.65;0.93;;;5.80;99.90;;;;;;5129612;27;20411;-61
2023/01/15 04:35:42;;;;;;;2.13;1.05;;;5.80;99.90;;;;;;5129979;27;20412;-60
2023/01/15 04:38:08;;;;;;;2.53;1.00;;;5.80;99.90;;;;;;5129588;27;20407;-61
2023/01/15 04:46:05;;;;;;;3.28;1.10;;;5.80;99.90;;;;;;5129764;28;20499;-61
2023/01/15 04:48:32;;;;;;;2.10;1.10;;;5.80;99.90;;;;;;5129304;27;20490;-59
2023/01/15 04:51:02;;;;;;;2.20;1.00;;;5.80;99.90;;;;;;5129688;27;20479;-61
2023/01/15 04:53:29;;;;;;;2.75;1.33;;;5.80;99.90;;;;;;5129982;27;20403;-61
2023/01/15 04:56:00;;;;;;;2.80;1.20;;;5.80;99.90;;;;;;5129726;27;20728;-62
2023/01/15 04:58:29;;;;;;;2.40;1.20;;;5.80;99.90;;;;;;5129625;27;20415;-61
2023/01/15 05:00:55;;;;;;;2.53;1.20;;;5.80;99.90;;;;;;5129441;27;20407;-62
2023/01/15 05:03:22;;;;;;;3.63;1.53;;;5.80;99.90;;;;;;5129597;27;20431;-60
2023/01/15 05:05:49;;;;;;;3.97;1.50;;;5.80;99.90;;;;;;5111262;27;20417;-61
2023/01/15 05:08:16;;;;;;;3.10;1.57;;;5.80;99.90;;;;;;5108934;28;20951;-61
2023/01/15 05:10:43;;;;;;;2.70;1.48;;;5.70;99.90;;;;;;5127779;28;20428;-60
2023/01/15 05:13:10;;;;;;;3.50;1.42;;;5.80;99.90;;;;;;5130057;28;20407;-61
2023/01/15 05:15:39;;;;;;;3.83;1.67;;;5.70;99.90;;;;;;5129942;28;20418;-61
2023/01/15 05:18:06;;;;;;;5.10;2.17;;;5.70;99.90;;;;;;5131957;27;20427;-60
2023/01/15 05:20:36;;;;;;;2.03;1.40;;;5.70;99.90;;;;;;5145181;27;20507;-61
2023/01/15 05:23:03;;;;;;;2.92;1.50;;;5.70;99.90;;;;;;5116165;27;20459;-60
2023/01/15 05:25:30;;;;;;;4.28;1.50;;;5.70;99.90;;;;;;5128459;27;20502;-61
2023/01/15 05:27:56;;;;;;;2.42;1.30;;;5.80;99.90;;;;;;5115443;27;20810;-60
2023/01/15 05:30:23;;;;;;;3.80;1.50;;;5.80;99.90;;;;;;5119221;27;20422;-61
2023/01/15 05:32:52;;;;;;;3.40;1.57;;;5.80;99.90;;;;;;5130691;27;20426;-61
2023/01/15 05:35:18;;;;;;;4.17;1.30;;;5.80;99.90;;;;;;5124964;27;20649;-62
2023/01/15 05:37:45;;;;;;;5.47;1.50;;;5.80;99.90;;;;;;5124449;27;20518;-61
2023/01/15 05:40:13;;;;;;;3.15;1.38;;;5.80;99.90;;;;;;5135976;27;20839;-61
2023/01/15 05:42:39;;;;;;;5.75;2.10;;;5.80;99.90;;;;;;5120017;27;20416;-60
2023/01/15 05:45:07;;;;;;;5.10;1.30;;;5.80;99.90;;;;;;5115548;28;20423;-61
2023/01/15 05:47:34;;;;;;;4.70;1.50;;;5.80;99.90;;;;;;5115253;28;20412;-61
2023/01/15 05:50:03;;;;;;;5.45;1.52;;;5.80;99.90;;;;;;5118053;28;20432;-60
2023/01/15 05:52:29;;;;;;;4.07;2.10;;;5.80;99.90;;;;;;5120490;28;20918;-61
2023/01/15 05:54:56;;;;;;;3.50;2.10;;;5.90;99.90;;;;;;5115245;28;20503;-61
2023/01/15 05:57:23;;;;;;;2.72;1.40;;;5.90;99.90;;;;;;5115089;28;20419;-60
2023/01/15 05:59:52;;;;;;;4.70;1.67;;;5.90;99.90;;;;;;5115625;28;20407;-60
2023/01/15 06:02:18;;;;;;;5.20;1.80;;;5.90;99.90;;;;;;5115322;28;20852;-61
2023/01/15 06:04:45;;;;;;;4.50;2.00;;;5.90;99.90;;;;;;5121629;27;20431;-61
2023/01/15 06:07:13;;;;;;;4.80;1.95;;;5.90;99.90;;;;;;5115091;28;20415;-60
2023/01/15 06:09:40;;;;;;;3.83;1.90;;;5.90;99.90;;;;;;5115656;27;20485;-61
2023/01/15 06:12:07;;;;;;;5.70;1.90;;;6.00;99.90;;;;;;5119610;27;20794;-61
2023/01/15 06:14:34;;;;;;;6.10;2.57;;;6.00;99.90;;;;;;5115412;27;20448;-60
2023/01/15 06:17:01;;;;;;;4.55;1.75;;;6.00;99.90;;;;;;5124797;27;20428;-61
2023/01/15 06:19:28;;;;;;;6.65;2.30;;;6.00;99.90;;;;;;5135464;27;20423;-61
2023/01/15 06:21:54;;;;;;;3.67;1.97;;;6.00;99.90;;;;;;5120406;27;20877;-60
2023/01/15 06:24:22;;;;;;;3.97;1.90;;;6.00;99.90;;;;;;5120793;27;20444;-60
2023/01/15 06:26:49;;;;;;;5.97;1.98;;;6.00;99.90;;;;;;5115894;28;20432;-59
2023/01/15 06:29:17;;;;;;;4.90;2.15;;;6.00;99.90;;;;;;5114942;28;20430;-60
2023/01/15 06:31:44;;;;;;;6.15;2.10;;;6.00;99.90;;;;;;5113486;28;20430;-60
2023/01/15 06:34:11;;;;;;;4.23;1.90;;;6.10;99.90;;;;;;5129421;27;20428;-62
2023/01/15 06:36:37;;;;;;;5.18;2.17;;;6.00;99.90;;;;;;5118715;27;20431;-62
2023/01/15 06:39:04;;;;;;;6.05;1.90;;;6.10;99.90;;;;;;5129290;27;20422;-61
2023/01/15 06:47:20;;;;;;;5.83;1.80;;;6.00;99.90;;;;;;5123138;28;20422;-61
2023/01/15 06:49:47;;;;;;;5.00;2.10;;;6.00;99.90;;;;;;5130426;27;20486;-60
2023/01/15 06:52:14;;;;;;;4.40;1.80;;;6.00;99.90;;;;;;5140889;27;20422;-61
2023/01/15 06:54:41;;;;;;;7.40;2.10;;;6.00;99.90;;;;;;5114893;28;20974;-61
2023/01/15 06:57:09;;;;;;;3.92;2.15;;;6.00;99.90;;;;;;5116703;28;20939;-61
2023/01/15 07:00:02;;;;;;;4.38;1.92;;;6.00;99.90;;;;;;5129292;27;20484;-62
2023/01/15 07:02:29;;;;;;;5.65;1.92;;;6.00;99.90;;;;;;5132223;27;20824;-61
2023/01/15 07:04:56;;;;;;;6.88;1.85;;;6.00;99.90;;;;;;5128410;27;20433;-61
2023/01/15 07:07:22;;;;;;;4.50;1.83;;;6.00;99.90;;;;;;5112259;28;20515;-61
2023/01/15 07:09:50;;;;;;;5.57;2.00;;;6.00;99.90;;;;;;5114045;27;20539;-61
2023/01/15 07:12:18;;;;;;;3.60;1.67;;;6.00;99.90;;;;;;5113275;27;20408;-60
2023/01/15 07:14:46;;;;;;;3.00;1.73;;;6.00;99.90;;;;;;5117042;27;20895;-62
2023/01/15 07:17:13;;;;;;;5.07;1.73;;;6.00;99.90;;;;;;5133540;27;20764;-61
2023/01/15 07:19:40;;;;;;;3.97;2.17;;;5.90;99.90;;;;;;5117098;27;20944;-61
2023/01/15 07:22:07;;;;;;;5.05;2.10;;;6.00;99.90;;;;;;5133401;27;20501;-61
2023/01/15 07:24:34;;;;;;;6.82;2.17;;;6.00;99.90;;;;;;5114096;27;20499;-61
2023/01/15 07:27:01;;;;;;;5.50;1.85;;;6.00;99.90;;;;;;5113170;28;20428;-60
2023/01/15 07:29:29;;;;;;;4.32;1.80;;;6.00;99.90;;;;;;5119933;27;20423;-62
2023/01/15 07:31:56;;;;;;;6.53;2.30;;;6.00;99.90;;;;;;5116805;27;20456;-62
2023/01/15 07:34:23;;;;;;;5.35;2.20;;;6.00;99.90;;;;;;5115848;27;20406;-61
2023/01/15 07:36:50;;;;;;;4.47;1.80;;;6.00;99.90;;;;;;5133307;27;20414;-62
2023/01/15 07:39:17;;;;;;;3.67;1.60;;;6.00;99.90;;;;;;5133398;27;20406;-62
2023/01/15 07:50:03;;;;;;;5.15;1.95;;;6.00;99.90;;;;;;5132842;27;20551;-62
2023/01/15 07:52:30;;;;;;;4.85;1.92;;;6.00;99.90;;;;;;5133506;27;20409;-62
2023/01/15 07:54:57;;;;;;;3.70;1.83;;;6.00;99.90;;;;;;5132555;27;20411;-62
2023/01/15 07:57:24;;;;;;;3.92;1.80;;;6.00;99.90;;;;;;5133020;27;20417;-62
2023/01/15 07:59:52;;;;;;;4.40;1.70;;;6.00;99.90;;;;;;5133415;27;20410;-62
2023/01/15 08:02:19;;;;;;;5.50;1.80;;;6.00;99.90;;;;;;5123772;27;20408;-62
2023/01/15 08:04:46;;;;;;;6.50;1.80;;;6.10;99.90;;;;;;5116040;27;20530;-61
2023/01/15 08:07:14;;;;;;;6.90;1.90;;;6.10;99.90;;;;;;5113649;28;20515;-63
2023/01/15 08:09:41;;;;;;;4.28;1.85;;;6.10;99.90;;;;;;5115732;28;20602;-63
2023/01/15 08:15:13;;;;;;;7.40;2.13;;;6.10;99.90;;;;;;5120411;28;20417;-62
2023/01/15 08:17:42;;;;;;;4.40;2.30;;;6.20;99.90;;;;;;5133327;28;20887;-61
2023/01/15 08:20:12;;;;;;;3.47;1.80;;;6.10;99.90;;;;;;5130449;28;20469;-62
2023/01/15 08:22:39;;;;;;;5.50;2.38;;;6.20;99.90;;;;;;5126660;28;20511;-61
2023/01/15 08:25:08;;;;;;;5.00;1.80;;;6.20;99.90;;;;;;5125790;28;20414;-62
2023/01/15 08:27:35;;;;;;;5.88;2.90;;;6.20;99.90;;;;;;5132664;28;20421;-62
2023/01/15 08:30:04;;;;;;;6.13;1.90;;;6.20;99.90;;;;;;5112303;28;20412;-62
2023/01/15 08:32:31;;;;;;;5.63;1.93;;;6.20;99.90;;;;;;5112524;28;20480;-61
2023/01/15 08:34:57;;;;;;;4.43;1.83;;;6.20;99.90;;;;;;5112497;28;20420;-62
2023/01/15 08:37:24;;;;;;;4.20;2.00;;;6.20;99.90;;;;;;5130664;28;20399;-62
2023/01/15 08:39:52;;;;;;;5.65;1.80;;;6.20;99.90;;;;;;5127265;28;20404;-61
2023/01/15 08:42:19;;;;;;;2.78;1.80;;;6.30;99.90;;;;;;5113544;28;20446;-62
2023/01/15 08:44:45;;;;;;;4.55;2.03;;;6.30;99.90;;;;;;5121195;28;20432;-61
2023/01/15 08:47:14;;;;;;;4.80;2.10;;;6.30;99.90;;;;;;5117666;28;20491;-61
2023/01/15 08:49:41;;;;;;;3.75;1.60;;;6.30;99.90;;;;;;5112330;28;20455;-61
2023/01/15 08:52:08;;;;;;;3.28;1.48;;;6.30;99.90;;;;;;5112480;28;20912;-62
2023/01/15 08:54:35;;;;;;;4.20;1.90;;;6.40;99.90;;;;;;5113145;28;20446;-61
2023/01/15 08:57:02;;;;;;;5.28;1.90;;;6.40;99.90;;;;;;5116404;27;20518;-63
2023/01/15 08:59:29;;;;;;;5.97;2.10;;;6.40;99.90;;;;;;5124242;27;20420;-63
2023/01/15 09:01:55;;;;;;;4.10;1.88;;;6.40;99.90;;;;;;5119114;27;20444;-64
2023/01/15 09:04:23;;;;;;;4.93;1.83;;;6.40;99.90;;;;;;5116043;27;20424;-62
2023/01/15 09:06:50;;;;;;;4.85;1.70;;;6.40;99.90;;;;;;5115301;28;20416;-61
2023/01/15 09:09:17;;;;;;;4.88;1.77;;;6.40;99.90;;;;;;5113644;28;20424;-62
2023/01/15 09:11:44;;;;;;;5.47;1.85;;;6.40;99.90;;;;;;5114107;28;20424;-62
2023/01/15 09:14:14;;;;;;;4.68;1.60;;;6.40;99.90;;;;;;5115459;28;20420;-61
2023/01/15 09:16:41;;;;;;;6.00;2.00;;;6.40;99.90;;;;;;5115399;28;20464;-62
2023/01/15 09:19:09;;;;;;;5.32;1.90;;;6.40;99.90;;;;;;5115426;28;20414;-61
2023/01/15 09:21:37;;;;;;;4.10;1.55;;;6.40;99.90;;;;;;5115486;28;20411;-62
2023/01/15 09:24:05;;;;;;;5.15;2.00;;;6.40;99.90;;;;;;5115534;28;20427;-62
2023/01/15 09:26:33;;;;;;;6.82;2.10;;;6.50;99.90;;;;;;5119100;27;21164;-60
2023/01/15 09:29:00;;;;;;;5.63;2.00;;;6.50;99.90;;;;;;5115637;27;20435;-61
2023/01/15 09:31:28;;;;;;;5.38;1.90;;;6.60;99.90;;;;;;5125663;27;20422;-63
2023/01/15 09:33:54;;;;;;;5.47;2.22;;;6.70;99.90;;;;;;5130355;27;20801;-62
2023/01/15 09:36:24;;;;;;;4.85;1.98;;;6.70;99.90;;;;;;5115481;28;20404;-62
2023/01/15 09:38:52;;;;;;;5.60;2.60;;;6.80;99.90;;;;;;5122664;27;20421;-63
2023/01/15 09:44:24;;;;;;;4.25;1.80;;;6.90;99.90;;;;;;5125379;27;20850;-66
2023/01/15 09:47:02;;;;;;;4.88;1.60;;;7.00;99.90;;;;;;5117381;27;20919;-61
2023/01/15 09:49:40;;;;;;;5.40;1.90;;;7.10;99.90;;;;;;5127780;27;20431;-63
2023/01/15 09:52:17;;;;;;;4.10;1.70;;;7.10;99.90;;;;;;5115070;28;20424;-63
2023/01/15 09:54:57;;;;;;;4.43;1.50;;;7.10;99.90;;;;;;5114897;28;20409;-62
2023/01/15 09:57:25;;;;;;;5.00;1.80;;;7.20;99.90;;;;;;5115057;28;20438;-62
2023/01/15 09:59:59;;;;;;;5.38;1.70;;;7.20;99.90;;;;;;5116617;27;20428;-62
2023/01/15 10:02:30;;;;;;;4.55;1.80;;;7.30;99.90;;;;;;5115018;27;20424;-62
2023/01/15 10:05:01;;;;;;;5.63;1.63;;;7.40;99.90;;;;;;5115288;28;20458;-60
2023/01/15 10:07:32;;;;;;;2.63;1.13;;;7.50;99.90;;;;;;5115192;28;20407;-62
2023/01/15 10:10:05;;;;;;;3.55;1.50;;;7.50;99.90;;;;;;5114233;28;20430;-62
2023/01/15 10:12:37;;;;;;;4.25;1.48;;;7.60;99.50;;;;;;5115429;28;20502;-61
2023/01/15 10:15:15;;;;;;;4.18;1.20;;;7.70;98.90;;;;;;5114426;28;20456;-61
2023/01/15 10:17:43;;;;;;;3.00;1.30;;;7.80;97.80;;;;;;5114576;28;20419;-61
2023/01/15 10:20:27;;;;;;;5.30;1.30;;;7.80;96.50;;;;;;5115034;28;20408;-62
2023/01/15 10:23:11;;;;;;;6.20;1.70;;;7.80;95.80;;;;;;5114996;28;20407;-61
2023/01/15 10:28:18;;;;;;;6.22;1.55;;;7.70;94.40;;;;;;5132436;27;20821;-64
2023/01/15 10:30:50;;;;;;;3.35;1.25;;;7.60;94.10;;;;;;5135904;27;20432;-63
2023/01/15 10:33:51;;;;;;;4.07;1.25;;;7.50;94.30;;;;;;5135560;27;20421;-62
2023/01/15 10:36:22;;;;;;;3.70;1.20;;;7.40;94.60;;;;;;5114556;28;20491;-62
2023/01/15 10:39:00;;;;;;;3.35;1.50;;;7.30;94.60;;;;;;5114904;28;20458;-63
2023/01/15 10:41:38;;;;;;;4.00;1.50;;;7.20;94.30;;;;;;5115815;28;20412;-64
2023/01/15 10:44:13;;;;;;;5.80;1.50;;;7.20;95.00;;;;;;5114735;28;20856;-62
2023/01/15 10:46:41;;;;;;;2.50;1.40;;;7.20;95.50;;;;;;5114990;28;20419;-63
2023/01/15 10:49:14;;;;;;;3.65;1.48;;;7.20;95.80;;;;;;5115989;28;20828;-63
2023/01/15 10:51:44;;;;;;;3.92;1.60;;;7.20;96.40;;;;;;5119330;28;20432;-62
2023/01/15 10:54:18;;;;;;;4.05;1.40;;;7.30;96.60;;;;;;5117991;28;20419;-63
2023/01/15 10:56:51;;;;;;;3.30;1.60;;;7.30;96.50;;;;;;5117884;28;20423;-62
2023/01/15 10:59:23;;;;;;;4.40;1.40;;;7.40;96.70;;;;;;5115864;28;20475;-62
2023/01/15 11:01:53;;;;;;;2.80;1.40;;;7.40;96.60;;;;;;5115520;28;20408;-63
2023/01/15 11:04:20;;;;;;;3.97;1.30;;;7.50;96.80;;;;;;5114337;28;20495;-61
2023/01/15 11:06:47;;;;;;;5.15;1.30;;;7.60;96.80;;;;;;5113661;28;20412;-62
2023/01/15 11:09:21;;;;;;;4.60;1.30;;;7.70;97.10;;;;;;5113846;28;20867;-63
2023/01/15 11:20:17;;;;;;;4.57;1.90;;;7.60;96.00;;;;;;5113070;28;20403;-64
2023/01/15 11:22:44;;;;;;;3.88;1.80;;;7.60;96.00;;;;;;5114253;28;20408;-62
2023/01/15 11:25:11;;;;;;;4.32;1.30;;;7.60;95.70;;;;;;5113252;28;20412;-62
2023/01/15 11:27:39;;;;;;;4.40;1.70;;;7.60;95.70;;;;;;5114104;28;20412;-62
2023/01/15 11:30:25;;;;;;;3.63;1.70;;;7.60;94.90;;;;;;5117781;28;20859;-63
2023/01/15 11:32:56;;;;;;;5.80;2.10;;;7.60;94.50;;;;;;5117016;28;20424;-62
2023/01/15 11:35:23;;;;;;;3.90;1.60;;;7.70;94.50;;;;;;5117387;28;20438;-62
2023/01/15 11:38:01;;;;;;;3.38;1.58;;;7.80;94.00;;;;;;5118538;28;20416;-63
2023/01/15 11:40:27;;;;;;;3.40;1.10;;;8.00;92.70;;;;;;5122257;28;20518;-63
2023/01/15 11:51:28;;;;;;;4.88;1.42;;;8.20;89.70;;;;;;5120451;28;20568;-63
2023/01/15 11:53:59;;;;;;;3.58;1.80;;;8.20;88.10;;;;;;5120395;28;20411;-63
2023/01/15 11:56:30;;;;;;;4.38;1.70;;;8.30;87.60;;;;;;5114595;28;20496;-63
2023/01/15 11:58:59;;;;;;;4.22;1.40;;;8.30;85.90;;;;;;5113874;28;20442;-63
2023/01/15 12:01:31;;;;;;;4.20;1.80;;;8.20;84.30;;;;;;5112832;28;20412;-61
2023/01/15 12:04:19;;;;;;;3.65;1.40;;;8.20;83.50;;;;;;5112752;28;20444;-63
2023/01/15 12:06:45;;;;;;;3.00;1.63;;;8.30;83.20;;;;;;5113308;28;20466;-62
2023/01/15 12:09:34;;;;;;;2.78;1.38;;;8.20;81.90;;;;;;5113000;28;20416;-63
2023/01/15 12:12:11;;;;;;;3.30;1.65;;;8.20;81.60;;;;;;5112966;28;20467;-63
2023/01/15 12:15:00;;;;;;;2.50;1.20;;;8.20;80.70;;;;;;5114193;28;20467;-64
2023/01/15 12:17:45;;;;;;;3.30;1.20;;;8.20;80.00;;;;;;5116448;28;20454;-62
2023/01/15 12:20:21;;;;;;;5.03;1.20;;;8.20;78.10;;;;;;5122674;28;20416;-63
2023/01/15 12:23:01;;;;;;;5.10;1.00;;;8.20;76.70;;;;;;5116537;28;20408;-63
2023/01/15 12:25:35;;;;;;;3.88;1.60;;;8.20;75.70;;;;;;5116880;28;20411;-62
2023/01/15 12:28:09;;;;;;;3.78;1.30;;;8.20;73.20;;;;;;5119103;28;20532;-63
2023/01/15 12:30:41;;;;;;;4.50;1.20;;;8.20;73.20;;;;;;5118065;28;20425;-62
2023/01/15 12:33:25;;;;;;;2.90;1.10;;;8.30;73.50;;;;;;5122085;28;20460;-62
2023/01/15 12:35:58;;;;;;;3.10;1.20;;;8.30;73.90;;;;;;5123391;28;20404;-63
2023/01/15 12:38:48;;;;;;;3.38;1.10;;;8.30;73.90;;;;;;5118838;28;20454;-64
2023/01/15 12:41:21;;;;;;;4.15;1.10;;;8.30;73.80;;;;;;5118751;28;20807;-63
2023/01/15 12:46:40;;;;;;;3.63;1.20;;;8.30;73.70;;;;;;5119926;28;20825;-63
2023/01/15 12:49:19;;;;;;;3.05;1.40;;;8.20;73.10;;;;;;5121113;28;20415;-62
2023/01/15 12:51:51;;;;;;;3.63;1.30;;;8.10;73.20;;;;;;5117479;28;20432;-61
2023/01/15 12:54:24;;;;;;;2.25;1.10;;;8.10;74.20;;;;;;5118171;28;20899;-61
2023/01/15 12:56:57;;;;;;;2.72;1.40;;;8.00;73.30;;;;;;5118217;28;20737;-63
2023/01/15 12:59:30;;;;;;;4.00;1.40;;;8.00;73.00;;;;;;5117782;28;20467;-63
2023/01/15 13:02:09;;;;;;;5.10;1.57;;;8.00;73.60;;;;;;5117383;28;20531;-62
2023/01/15 13:04:45;;;;;;;3.15;1.33;;;8.00;73.90;;;;;;5116686;28;20455;-62
2023/01/15 13:07:20;;;;;;;4.60;1.42;;;8.00;74.00;;;;;;5117181;28;20416;-63
2023/01/15 13:09:55;;;;;;;4.40;1.33;;;8.00;74.30;;;;;;5118011;28;20911;-63
2023/01/15 13:12:22;;;;;;;4.53;1.70;;;8.00;74.40;;;;;;5118098;28;20450;-63
2023/01/15 13:14:49;;;;;;;4.10;1.48;;;8.00;74.40;;;;;;5118072;28;20506;-63
2023/01/15 13:17:26;;;;;;;3.33;1.30;;;8.00;74.40;;;;;;5118453;28;20891;-64
2023/01/15 13:20:13;;;;;;;3.17;1.48;;;7.90;74.20;;;;;;5117252;28;20482;-64
2023/01/15 13:22:52;;;;;;;3.03;1.73;;;7.90;74.90;;;;;;5115852;28;20440;-63
2023/01/15 13:25:34;;;;;;;3.53;1.30;;;7.80;75.60;;;;;;5116385;28;20510;-63
2023/01/15 13:28:13;;;;;;;2.95;1.20;;;7.80;76.20;;;;;;5115354;28;20453;-62
2023/01/15 13:30:58;;;;;;;2.40;1.23;;;7.80;76.40;;;;;;5116142;28;20448;-63
2023/01/15 13:33:29;;;;;;;3.28;1.45;;;7.80;75.50;;;;;;5116955;28;20557;-63
2023/01/15 13:36:08;;;;;;;3.63;1.70;;;7.80;75.70;;;;;;5120561;28;20408;-63
2023/01/15 13:38:41;;;;;;;3.40;1.40;;;7.80;75.70;;;;;;5125658;28;20419;-64
2023/01/15 13:41:09;;;;;;;3.80;1.60;;;7.80;75.10;;;;;;5124696;28;20462;-64
2023/01/15 13:43:39;;;;;;;3.60;1.27;;;7.80;74.30;;;;;;5122294;28;20484;-63
2023/01/15 13:46:10;;;;;;;4.00;1.20;;;7.80;74.30;;;;;;5120934;28;20945;-63
2023/01/15 13:48:42;;;;;;;5.43;2.00;;;7.90;74.30;;;;;;5119051;28;20424;-63
2023/01/15 13:51:26;;;;;;;5.40;1.40;;;7.90;74.10;;;;;;5119947;28;20412;-63
2023/01/15 13:53:54;;;;;;;2.30;1.60;;;7.90;74.30;;;;;;5121830;28;20457;-64
2023/01/15 13:56:27;;;;;;;4.15;1.20;;;7.90;75.10;;;;;;5120264;28;20412;-61
2023/01/15 13:58:56;;;;;;;3.08;1.20;;;7.90;74.60;;;;;;5120026;28;20452;-63
2023/01/15 14:01:25;;;;;;;4.55;1.60;;;7.90;74.80;;;;;;5121917;28;20871;-63
2023/01/15 14:03:59;;;;;;;4.22;1.50;;;8.00;75.30;;;;;;5121003;28;20419;-62
2023/01/15 14:06:38;;;;;;;3.33;1.10;;;8.00;75.20;;;;;;5116170;28;20408;-61
2023/01/15 14:09:05;;;;;;;4.72;1.48;;;8.00;75.50;;;;;;5115615;28;20503;-62